sensor_id;sensor_type;location;lat;lon;timestamp;P1;durP1;ratioP1;P2;durP2;ratioP2
56927;SDS011;60850;52.502;13.426;2023-07-24T00:00:05;4.10;;;2.75;;
56927;SDS011;60850;52.502;13.426;2023-07-24T00:02:33;5.80;;;2.72;;
56927;SDS011;60850;52.502;13.426;2023-07-24T00:04:59;3.75;;;2.50;;
56927;SDS011;60850;52.502;13.426;2023-07-24T00:07:26;3.10;;;2.30;;
56927;SDS011;60850;52.502;13.426;2023-07-24T00:09:53;3.67;;;2.50;;
56927;SDS011;60850;52.502;13.426;2023-07-24T00:12:23;5.78;;;2.60;;
56927;SDS011;60850;52.502;13.426;2023-07-24T00:14:51;7.10;;;3.78;;
56927;SDS011;60850;52.502;13.426;2023-07-24T00:17:18;4.40;;;2.65;;
56927;SDS011;60850;52.502;13.426;2023-07-24T00:19:45;5.13;;;2.55;;
56927;SDS011;60850;52.502;13.426;2023-07-24T00:22:12;5.07;;;2.53;;
56927;SDS011;60850;52.502;13.426;2023-07-24T00:24:39;4.70;;;2.72;;
56927;SDS011;60850;52.502;13.426;2023-07-24T00:27:06;8.02;;;2.80;;
56927;SDS011;60850;52.502;13.426;2023-07-24T00:29:34;5.53;;;2.60;;
56927;SDS011;60850;52.502;13.426;2023-07-24T00:32:01;5.00;;;2.17;;
56927;SDS011;60850;52.502;13.426;2023-07-24T00:34:27;4.10;;;2.55;;
56927;SDS011;60850;52.502;13.426;2023-07-24T00:36:54;5.70;;;2.47;;
56927;SDS011;60850;52.502;13.426;2023-07-24T00:39:21;5.32;;;2.45;;
56927;SDS011;60850;52.502;13.426;2023-07-24T00:41:48;4.30;;;2.30;;
56927;SDS011;60850;52.502;13.426;2023-07-24T00:44:15;4.45;;;2.72;;
56927;SDS011;60850;52.502;13.426;2023-07-24T00:46:46;3.42;;;2.47;;
56927;SDS011;60850;52.502;13.426;2023-07-24T00:49:13;3.70;;;2.22;;
56927;SDS011;60850;52.502;13.426;2023-07-24T00:51:40;4.45;;;2.60;;
56927;SDS011;60850;52.502;13.426;2023-07-24T00:54:09;5.80;;;2.90;;
56927;SDS011;60850;52.502;13.426;2023-07-24T00:56:38;3.58;;;2.33;;
56927;SDS011;60850;52.502;13.426;2023-07-24T00:59:05;5.18;;;2.33;;
56927;SDS011;60850;52.502;13.426;2023-07-24T01:01:32;7.60;;;2.83;;
56927;SDS011;60850;52.502;13.426;2023-07-24T01:04:01;4.03;;;2.65;;
56927;SDS011;60850;52.502;13.426;2023-07-24T01:06:32;5.25;;;2.55;;
56927;SDS011;60850;52.502;13.426;2023-07-24T01:08:58;4.10;;;2.30;;
56927;SDS011;60850;52.502;13.426;2023-07-24T01:11:27;4.38;;;2.42;;
56927;SDS011;60850;52.502;13.426;2023-07-24T01:14:01;5.82;;;2.78;;
56927;SDS011;60850;52.502;13.426;2023-07-24T01:16:36;3.90;;;2.70;;
56927;SDS011;60850;52.502;13.426;2023-07-24T01:19:06;5.45;;;2.78;;
56927;SDS011;60850;52.502;13.426;2023-07-24T01:21:43;6.45;;;2.58;;
56927;SDS011;60850;52.502;13.426;2023-07-24T01:24:19;4.28;;;2.50;;
56927;SDS011;60850;52.502;13.426;2023-07-24T01:26:56;6.70;;;2.58;;
56927;SDS011;60850;52.502;13.426;2023-07-24T01:29:23;4.00;;;2.58;;
56927;SDS011;60850;52.502;13.426;2023-07-24T01:31:50;4.20;;;2.85;;
56927;SDS011;60850;52.502;13.426;2023-07-24T01:34:17;5.75;;;2.70;;
56927;SDS011;60850;52.502;13.426;2023-07-24T01:36:44;4.18;;;2.50;;
56927;SDS011;60850;52.502;13.426;2023-07-24T01:39:11;6.53;;;2.75;;
56927;SDS011;60850;52.502;13.426;2023-07-24T01:41:39;6.20;;;3.17;;
56927;SDS011;60850;52.502;13.426;2023-07-24T01:44:07;4.72;;;2.65;;
56927;SDS011;60850;52.502;13.426;2023-07-24T01:46:34;3.90;;;2.60;;
56927;SDS011;60850;52.502;13.426;2023-07-24T01:49:01;4.97;;;2.88;;
56927;SDS011;60850;52.502;13.426;2023-07-24T01:51:28;4.30;;;2.90;;
56927;SDS011;60850;52.502;13.426;2023-07-24T01:53:55;4.95;;;2.72;;
56927;SDS011;60850;52.502;13.426;2023-07-24T01:56:22;4.60;;;2.67;;
56927;SDS011;60850;52.502;13.426;2023-07-24T01:58:48;4.47;;;2.38;;
56927;SDS011;60850;52.502;13.426;2023-07-24T02:01:17;8.18;;;2.55;;
56927;SDS011;60850;52.502;13.426;2023-07-24T02:03:43;4.35;;;2.30;;
56927;SDS011;60850;52.502;13.426;2023-07-24T02:06:10;3.85;;;2.53;;
56927;SDS011;60850;52.502;13.426;2023-07-24T02:08:37;2.83;;;2.03;;
56927;SDS011;60850;52.502;13.426;2023-07-24T02:11:04;4.88;;;2.78;;
56927;SDS011;60850;52.502;13.426;2023-07-24T02:13:31;5.25;;;2.70;;
56927;SDS011;60850;52.502;13.426;2023-07-24T02:15:58;4.80;;;2.80;;
56927;SDS011;60850;52.502;13.426;2023-07-24T02:18:26;4.95;;;3.05;;
56927;SDS011;60850;52.502;13.426;2023-07-24T02:20:53;5.88;;;2.55;;
56927;SDS011;60850;52.502;13.426;2023-07-24T02:23:20;7.05;;;2.72;;
56927;SDS011;60850;52.502;13.426;2023-07-24T02:25:50;4.60;;;2.25;;
56927;SDS011;60850;52.502;13.426;2023-07-24T02:28:17;5.25;;;2.70;;
56927;SDS011;60850;52.502;13.426;2023-07-24T02:30:46;3.47;;;2.63;;
56927;SDS011;60850;52.502;13.426;2023-07-24T02:33:13;4.80;;;2.42;;
56927;SDS011;60850;52.502;13.426;2023-07-24T02:35:41;2.83;;;1.95;;
56927;SDS011;60850;52.502;13.426;2023-07-24T02:38:08;4.03;;;2.50;;
56927;SDS011;60850;52.502;13.426;2023-07-24T02:40:36;3.90;;;2.28;;
56927;SDS011;60850;52.502;13.426;2023-07-24T02:43:02;4.45;;;2.33;;
56927;SDS011;60850;52.502;13.426;2023-07-24T02:45:29;5.15;;;2.10;;
56927;SDS011;60850;52.502;13.426;2023-07-24T02:47:56;4.80;;;2.33;;
56927;SDS011;60850;52.502;13.426;2023-07-24T02:50:23;3.67;;;2.45;;
56927;SDS011;60850;52.502;13.426;2023-07-24T02:52:51;5.93;;;2.30;;
56927;SDS011;60850;52.502;13.426;2023-07-24T02:55:18;5.57;;;2.33;;
56927;SDS011;60850;52.502;13.426;2023-07-24T02:57:45;5.43;;;2.13;;
56927;SDS011;60850;52.502;13.426;2023-07-24T03:00:12;3.63;;;1.95;;
56927;SDS011;60850;52.502;13.426;2023-07-24T03:02:39;3.15;;;1.85;;
56927;SDS011;60850;52.502;13.426;2023-07-24T03:05:07;3.55;;;2.08;;
56927;SDS011;60850;52.502;13.426;2023-07-24T03:07:34;3.40;;;2.10;;
56927;SDS011;60850;52.502;13.426;2023-07-24T03:10:03;4.38;;;2.08;;
56927;SDS011;60850;52.502;13.426;2023-07-24T03:12:30;4.22;;;2.05;;
56927;SDS011;60850;52.502;13.426;2023-07-24T03:14:57;3.67;;;2.25;;
56927;SDS011;60850;52.502;13.426;2023-07-24T03:17:24;5.00;;;2.90;;
56927;SDS011;60850;52.502;13.426;2023-07-24T03:19:51;2.50;;;2.10;;
56927;SDS011;60850;52.502;13.426;2023-07-24T03:22:17;3.58;;;2.10;;
56927;SDS011;60850;52.502;13.426;2023-07-24T03:24:45;2.80;;;1.77;;
56927;SDS011;60850;52.502;13.426;2023-07-24T03:27:13;2.65;;;1.80;;
56927;SDS011;60850;52.502;13.426;2023-07-24T03:29:40;3.67;;;2.08;;
56927;SDS011;60850;52.502;13.426;2023-07-24T03:32:07;2.30;;;1.30;;
56927;SDS011;60850;52.502;13.426;2023-07-24T03:34:34;3.92;;;1.80;;
56927;SDS011;60850;52.502;13.426;2023-07-24T03:37:01;3.13;;;1.50;;
56927;SDS011;60850;52.502;13.426;2023-07-24T03:39:27;2.85;;;1.77;;
56927;SDS011;60850;52.502;13.426;2023-07-24T03:41:54;3.72;;;1.73;;
56927;SDS011;60850;52.502;13.426;2023-07-24T03:44:23;3.72;;;1.75;;
56927;SDS011;60850;52.502;13.426;2023-07-24T03:46:50;2.78;;;1.77;;
56927;SDS011;60850;52.502;13.426;2023-07-24T03:49:17;3.67;;;1.92;;
56927;SDS011;60850;52.502;13.426;2023-07-24T03:51:43;3.40;;;1.40;;
56927;SDS011;60850;52.502;13.426;2023-07-24T03:54:10;4.47;;;1.85;;
56927;SDS011;60850;52.502;13.426;2023-07-24T03:56:37;2.63;;;1.60;;
56927;SDS011;60850;52.502;13.426;2023-07-24T03:59:05;3.53;;;1.80;;
56927;SDS011;60850;52.502;13.426;2023-07-24T04:01:33;3.63;;;1.80;;
56927;SDS011;60850;52.502;13.426;2023-07-24T04:04:00;2.33;;;1.80;;
56927;SDS011;60850;52.502;13.426;2023-07-24T04:06:27;3.80;;;1.83;;
56927;SDS011;60850;52.502;13.426;2023-07-24T04:08:54;5.25;;;1.52;;
56927;SDS011;60850;52.502;13.426;2023-07-24T04:11:21;2.53;;;1.40;;
56927;SDS011;60850;52.502;13.426;2023-07-24T04:13:48;2.95;;;1.27;;
56927;SDS011;60850;52.502;13.426;2023-07-24T04:16:15;3.25;;;2.20;;
56927;SDS011;60850;52.502;13.426;2023-07-24T04:18:43;3.20;;;2.00;;
56927;SDS011;60850;52.502;13.426;2023-07-24T04:21:10;2.80;;;1.70;;
56927;SDS011;60850;52.502;13.426;2023-07-24T04:23:37;2.75;;;1.70;;
56927;SDS011;60850;52.502;13.426;2023-07-24T04:26:04;2.28;;;1.63;;
56927;SDS011;60850;52.502;13.426;2023-07-24T04:28:31;2.92;;;1.85;;
56927;SDS011;60850;52.502;13.426;2023-07-24T04:30:59;1.85;;;1.33;;
56927;SDS011;60850;52.502;13.426;2023-07-24T04:33:26;2.67;;;1.65;;
56927;SDS011;60850;52.502;13.426;2023-07-24T04:35:55;2.13;;;1.48;;
56927;SDS011;60850;52.502;13.426;2023-07-24T04:38:22;3.90;;;1.55;;
56927;SDS011;60850;52.502;13.426;2023-07-24T04:40:50;6.47;;;1.60;;
56927;SDS011;60850;52.502;13.426;2023-07-24T04:43:17;2.15;;;1.65;;
56927;SDS011;60850;52.502;13.426;2023-07-24T04:45:44;3.47;;;1.98;;
56927;SDS011;60850;52.502;13.426;2023-07-24T04:48:11;2.28;;;1.60;;
56927;SDS011;60850;52.502;13.426;2023-07-24T04:50:38;3.47;;;1.80;;
56927;SDS011;60850;52.502;13.426;2023-07-24T04:53:06;2.78;;;1.75;;
56927;SDS011;60850;52.502;13.426;2023-07-24T04:55:33;3.67;;;2.40;;
56927;SDS011;60850;52.502;13.426;2023-07-24T04:58:00;1.90;;;1.27;;
56927;SDS011;60850;52.502;13.426;2023-07-24T05:00:27;4.78;;;1.70;;
56927;SDS011;60850;52.502;13.426;2023-07-24T05:02:54;2.30;;;1.45;;
56927;SDS011;60850;52.502;13.426;2023-07-24T05:05:21;1.90;;;1.38;;
56927;SDS011;60850;52.502;13.426;2023-07-24T05:07:48;1.88;;;1.30;;
56927;SDS011;60850;52.502;13.426;2023-07-24T05:10:16;1.98;;;1.38;;
56927;SDS011;60850;52.502;13.426;2023-07-24T05:12:43;2.30;;;1.33;;
56927;SDS011;60850;52.502;13.426;2023-07-24T05:15:10;2.45;;;1.30;;
56927;SDS011;60850;52.502;13.426;2023-07-24T05:17:37;2.13;;;1.52;;
56927;SDS011;60850;52.502;13.426;2023-07-24T05:20:04;2.88;;;1.40;;
56927;SDS011;60850;52.502;13.426;2023-07-24T05:22:31;5.07;;;1.23;;
56927;SDS011;60850;52.502;13.426;2023-07-24T05:24:58;2.55;;;1.25;;
56927;SDS011;60850;52.502;13.426;2023-07-24T05:27:26;5.47;;;1.70;;
56927;SDS011;60850;52.502;13.426;2023-07-24T05:29:54;3.33;;;1.30;;
56927;SDS011;60850;52.502;13.426;2023-07-24T05:32:21;4.22;;;1.60;;
56927;SDS011;60850;52.502;13.426;2023-07-24T05:34:48;2.08;;;1.27;;
56927;SDS011;60850;52.502;13.426;2023-07-24T05:37:15;1.60;;;1.10;;
56927;SDS011;60850;52.502;13.426;2023-07-24T05:39:42;5.75;;;1.80;;
56927;SDS011;60850;52.502;13.426;2023-07-24T05:42:09;2.80;;;1.08;;
56927;SDS011;60850;52.502;13.426;2023-07-24T05:44:37;1.90;;;1.00;;
56927;SDS011;60850;52.502;13.426;2023-07-24T05:47:05;1.92;;;1.33;;
56927;SDS011;60850;52.502;13.426;2023-07-24T05:49:31;3.42;;;1.48;;
56927;SDS011;60850;52.502;13.426;2023-07-24T05:51:58;3.13;;;2.10;;
56927;SDS011;60850;52.502;13.426;2023-07-24T05:54:25;3.00;;;2.10;;
56927;SDS011;60850;52.502;13.426;2023-07-24T05:56:52;6.78;;;3.45;;
56927;SDS011;60850;52.502;13.426;2023-07-24T05:59:19;3.70;;;1.80;;
56927;SDS011;60850;52.502;13.426;2023-07-24T06:01:47;3.25;;;2.03;;
56927;SDS011;60850;52.502;13.426;2023-07-24T06:04:14;1.90;;;1.33;;
56927;SDS011;60850;52.502;13.426;2023-07-24T06:06:41;2.55;;;1.90;;
56927;SDS011;60850;52.502;13.426;2023-07-24T06:09:09;4.45;;;2.60;;
56927;SDS011;60850;52.502;13.426;2023-07-24T06:11:36;6.10;;;3.50;;
56927;SDS011;60850;52.502;13.426;2023-07-24T06:14:03;3.40;;;1.50;;
56927;SDS011;60850;52.502;13.426;2023-07-24T06:16:30;10.73;;;6.88;;
56927;SDS011;60850;52.502;13.426;2023-07-24T06:18:58;4.13;;;2.38;;
56927;SDS011;60850;52.502;13.426;2023-07-24T06:21:25;2.15;;;1.70;;
56927;SDS011;60850;52.502;13.426;2023-07-24T06:23:52;5.78;;;4.70;;
56927;SDS011;60850;52.502;13.426;2023-07-24T06:26:19;2.00;;;1.70;;
56927;SDS011;60850;52.502;13.426;2023-07-24T06:28:45;7.15;;;4.65;;
56927;SDS011;60850;52.502;13.426;2023-07-24T06:31:12;5.07;;;2.83;;
56927;SDS011;60850;52.502;13.426;2023-07-24T06:33:39;2.08;;;1.88;;
56927;SDS011;60850;52.502;13.426;2023-07-24T06:36:09;2.15;;;1.73;;
56927;SDS011;60850;52.502;13.426;2023-07-24T06:38:36;2.92;;;2.30;;
56927;SDS011;60850;52.502;13.426;2023-07-24T06:41:03;3.83;;;3.22;;
56927;SDS011;60850;52.502;13.426;2023-07-24T06:43:30;2.95;;;2.28;;
56927;SDS011;60850;52.502;13.426;2023-07-24T06:45:57;2.20;;;1.92;;
56927;SDS011;60850;52.502;13.426;2023-07-24T06:48:24;2.75;;;1.50;;
56927;SDS011;60850;52.502;13.426;2023-07-24T06:50:51;2.75;;;2.03;;
56927;SDS011;60850;52.502;13.426;2023-07-24T06:53:19;3.35;;;1.85;;
56927;SDS011;60850;52.502;13.426;2023-07-24T06:55:46;2.53;;;2.25;;
56927;SDS011;60850;52.502;13.426;2023-07-24T06:58:13;2.17;;;1.98;;
56927;SDS011;60850;52.502;13.426;2023-07-24T07:00:40;2.20;;;1.75;;
56927;SDS011;60850;52.502;13.426;2023-07-24T07:03:06;2.58;;;1.73;;
56927;SDS011;60850;52.502;13.426;2023-07-24T07:05:33;1.70;;;1.60;;
56927;SDS011;60850;52.502;13.426;2023-07-24T07:08:00;2.70;;;1.60;;
56927;SDS011;60850;52.502;13.426;2023-07-24T07:10:29;1.63;;;1.52;;
56927;SDS011;60850;52.502;13.426;2023-07-24T07:12:57;2.00;;;1.67;;
56927;SDS011;60850;52.502;13.426;2023-07-24T07:15:24;2.45;;;1.70;;
56927;SDS011;60850;52.502;13.426;2023-07-24T07:17:50;2.97;;;1.77;;
56927;SDS011;60850;52.502;13.426;2023-07-24T07:20:17;2.15;;;1.40;;
56927;SDS011;60850;52.502;13.426;2023-07-24T07:22:44;1.90;;;1.70;;
56927;SDS011;60850;52.502;13.426;2023-07-24T07:25:12;2.25;;;2.05;;
56927;SDS011;60850;52.502;13.426;2023-07-24T07:27:40;2.25;;;1.90;;
56927;SDS011;60850;52.502;13.426;2023-07-24T07:30:07;2.22;;;1.90;;
56927;SDS011;60850;52.502;13.426;2023-07-24T07:32:34;3.40;;;1.95;;
56927;SDS011;60850;52.502;13.426;2023-07-24T07:35:02;5.90;;;2.00;;
56927;SDS011;60850;52.502;13.426;2023-07-24T07:37:29;2.17;;;1.98;;
56927;SDS011;60850;52.502;13.426;2023-07-24T07:39:56;3.85;;;2.20;;
56927;SDS011;60850;52.502;13.426;2023-07-24T07:42:23;4.10;;;2.03;;
56927;SDS011;60850;52.502;13.426;2023-07-24T07:44:52;2.20;;;2.00;;
56927;SDS011;60850;52.502;13.426;2023-07-24T07:47:18;2.80;;;1.65;;
56927;SDS011;60850;52.502;13.426;2023-07-24T07:49:45;3.83;;;1.67;;
56927;SDS011;60850;52.502;13.426;2023-07-24T07:52:12;2.42;;;2.22;;
56927;SDS011;60850;52.502;13.426;2023-07-24T07:54:45;1.80;;;1.70;;
56927;SDS011;60850;52.502;13.426;2023-07-24T07:57:12;1.80;;;1.70;;
56927;SDS011;60850;52.502;13.426;2023-07-24T07:59:39;2.42;;;1.77;;
56927;SDS011;60850;52.502;13.426;2023-07-24T08:02:07;1.88;;;1.65;;
56927;SDS011;60850;52.502;13.426;2023-07-24T08:04:34;2.35;;;2.10;;
56927;SDS011;60850;52.502;13.426;2023-07-24T08:07:01;2.42;;;1.60;;
56927;SDS011;60850;52.502;13.426;2023-07-24T08:09:28;1.98;;;1.70;;
56927;SDS011;60850;52.502;13.426;2023-07-24T08:11:55;2.33;;;2.13;;
56927;SDS011;60850;52.502;13.426;2023-07-24T08:14:22;2.47;;;1.92;;
56927;SDS011;60850;52.502;13.426;2023-07-24T08:16:49;2.88;;;2.13;;
56927;SDS011;60850;52.502;13.426;2023-07-24T08:19:18;3.35;;;1.75;;
56927;SDS011;60850;52.502;13.426;2023-07-24T08:21:44;2.85;;;1.85;;
56927;SDS011;60850;52.502;13.426;2023-07-24T08:24:13;2.75;;;1.55;;
56927;SDS011;60850;52.502;13.426;2023-07-24T08:26:40;2.67;;;1.50;;
56927;SDS011;60850;52.502;13.426;2023-07-24T08:29:07;1.92;;;1.73;;
56927;SDS011;60850;52.502;13.426;2023-07-24T08:31:33;1.75;;;1.60;;
56927;SDS011;60850;52.502;13.426;2023-07-24T08:34:00;2.05;;;1.55;;
56927;SDS011;60850;52.502;13.426;2023-07-24T08:36:28;3.22;;;1.48;;
56927;SDS011;60850;52.502;13.426;2023-07-24T08:38:55;2.42;;;1.60;;
56927;SDS011;60850;52.502;13.426;2023-07-24T08:41:22;2.05;;;1.80;;
56927;SDS011;60850;52.502;13.426;2023-07-24T08:43:49;2.83;;;1.70;;
56927;SDS011;60850;52.502;13.426;2023-07-24T08:46:17;1.95;;;1.40;;
56927;SDS011;60850;52.502;13.426;2023-07-24T08:48:44;2.22;;;1.40;;
56927;SDS011;60850;52.502;13.426;2023-07-24T08:51:12;2.78;;;1.45;;
56927;SDS011;60850;52.502;13.426;2023-07-24T08:53:43;2.65;;;1.90;;
56927;SDS011;60850;52.502;13.426;2023-07-24T08:56:10;4.10;;;1.95;;
56927;SDS011;60850;52.502;13.426;2023-07-24T08:58:39;3.92;;;1.55;;
56927;SDS011;60850;52.502;13.426;2023-07-24T09:01:05;2.85;;;1.75;;
56927;SDS011;60850;52.502;13.426;2023-07-24T09:03:34;2.05;;;1.45;;
56927;SDS011;60850;52.502;13.426;2023-07-24T09:06:01;2.15;;;1.60;;
56927;SDS011;60850;52.502;13.426;2023-07-24T09:08:32;3.67;;;1.60;;
56927;SDS011;60850;52.502;13.426;2023-07-24T09:11:01;2.28;;;1.63;;
56927;SDS011;60850;52.502;13.426;2023-07-24T09:13:30;1.70;;;1.55;;
56927;SDS011;60850;52.502;13.426;2023-07-24T09:15:57;1.90;;;1.60;;
56927;SDS011;60850;52.502;13.426;2023-07-24T09:18:25;3.20;;;2.38;;
56927;SDS011;60850;52.502;13.426;2023-07-24T09:20:52;2.92;;;2.13;;
56927;SDS011;60850;52.502;13.426;2023-07-24T09:23:25;4.88;;;2.42;;
56927;SDS011;60850;52.502;13.426;2023-07-24T09:25:53;4.82;;;2.10;;
56927;SDS011;60850;52.502;13.426;2023-07-24T09:28:22;3.67;;;2.42;;
56927;SDS011;60850;52.502;13.426;2023-07-24T09:30:52;1.90;;;1.10;;
56927;SDS011;60850;52.502;13.426;2023-07-24T09:33:20;3.60;;;2.05;;
56927;SDS011;60850;52.502;13.426;2023-07-24T09:35:56;4.35;;;3.03;;
56927;SDS011;60850;52.502;13.426;2023-07-24T09:38:24;3.55;;;2.42;;
56927;SDS011;60850;52.502;13.426;2023-07-24T09:40:52;2.22;;;1.60;;
56927;SDS011;60850;52.502;13.426;2023-07-24T09:43:23;10.88;;;6.82;;
56927;SDS011;60850;52.502;13.426;2023-07-24T09:45:51;7.07;;;4.68;;
56927;SDS011;60850;52.502;13.426;2023-07-24T09:48:19;4.53;;;3.15;;
56927;SDS011;60850;52.502;13.426;2023-07-24T09:50:49;2.10;;;1.50;;
56927;SDS011;60850;52.502;13.426;2023-07-24T09:53:21;3.25;;;1.90;;
56927;SDS011;60850;52.502;13.426;2023-07-24T09:55:51;5.10;;;3.83;;
56927;SDS011;60850;52.502;13.426;2023-07-24T09:58:26;3.97;;;2.55;;
56927;SDS011;60850;52.502;13.426;2023-07-24T10:00:54;3.40;;;2.30;;
56927;SDS011;60850;52.502;13.426;2023-07-24T10:03:23;2.05;;;1.45;;
56927;SDS011;60850;52.502;13.426;2023-07-24T10:05:52;5.47;;;3.53;;
56927;SDS011;60850;52.502;13.426;2023-07-24T10:08:20;4.25;;;2.08;;
56927;SDS011;60850;52.502;13.426;2023-07-24T10:10:48;5.25;;;2.17;;
56927;SDS011;60850;52.502;13.426;2023-07-24T10:13:19;3.55;;;1.98;;
56927;SDS011;60850;52.502;13.426;2023-07-24T10:15:49;3.63;;;2.30;;
56927;SDS011;60850;52.502;13.426;2023-07-24T10:18:16;3.72;;;2.13;;
56927;SDS011;60850;52.502;13.426;2023-07-24T10:20:44;3.88;;;3.00;;
56927;SDS011;60850;52.502;13.426;2023-07-24T10:23:11;3.40;;;1.73;;
56927;SDS011;60850;52.502;13.426;2023-07-24T10:25:44;5.70;;;2.28;;
56927;SDS011;60850;52.502;13.426;2023-07-24T10:28:12;5.22;;;2.00;;
56927;SDS011;60850;52.502;13.426;2023-07-24T10:30:41;7.07;;;2.75;;
56927;SDS011;60850;52.502;13.426;2023-07-24T10:33:11;6.07;;;3.08;;
56927;SDS011;60850;52.502;13.426;2023-07-24T10:35:39;9.18;;;4.50;;
56927;SDS011;60850;52.502;13.426;2023-07-24T10:38:08;5.72;;;3.22;;
56927;SDS011;60850;52.502;13.426;2023-07-24T10:40:36;5.97;;;3.50;;
56927;SDS011;60850;52.502;13.426;2023-07-24T10:43:07;4.03;;;2.63;;
56927;SDS011;60850;52.502;13.426;2023-07-24T10:45:39;4.43;;;2.78;;
56927;SDS011;60850;52.502;13.426;2023-07-24T10:48:07;5.40;;;3.17;;
56927;SDS011;60850;52.502;13.426;2023-07-24T10:50:38;4.75;;;3.10;;
56927;SDS011;60850;52.502;13.426;2023-07-24T10:53:06;5.60;;;3.13;;
56927;SDS011;60850;52.502;13.426;2023-07-24T10:55:34;4.15;;;2.70;;
56927;SDS011;60850;52.502;13.426;2023-07-24T10:58:01;5.00;;;2.83;;
56927;SDS011;60850;52.502;13.426;2023-07-24T11:00:28;10.43;;;6.72;;
56927;SDS011;60850;52.502;13.426;2023-07-24T11:02:55;5.40;;;3.00;;
56927;SDS011;60850;52.502;13.426;2023-07-24T11:05:22;7.00;;;2.92;;
56927;SDS011;60850;52.502;13.426;2023-07-24T11:07:51;9.18;;;3.70;;
56927;SDS011;60850;52.502;13.426;2023-07-24T11:10:18;6.88;;;4.05;;
56927;SDS011;60850;52.502;13.426;2023-07-24T11:12:46;7.95;;;5.05;;
56927;SDS011;60850;52.502;13.426;2023-07-24T11:15:13;5.38;;;4.18;;
56927;SDS011;60850;52.502;13.426;2023-07-24T11:17:41;7.50;;;4.20;;
56927;SDS011;60850;52.502;13.426;2023-07-24T11:20:09;6.63;;;3.72;;
56927;SDS011;60850;52.502;13.426;2023-07-24T11:22:38;6.93;;;3.40;;
56927;SDS011;60850;52.502;13.426;2023-07-24T11:25:08;7.20;;;3.85;;
56927;SDS011;60850;52.502;13.426;2023-07-24T11:27:39;7.07;;;4.63;;
56927;SDS011;60850;52.502;13.426;2023-07-24T11:30:09;7.15;;;3.38;;
56927;SDS011;60850;52.502;13.426;2023-07-24T11:32:38;7.50;;;3.75;;
56927;SDS011;60850;52.502;13.426;2023-07-24T11:35:06;6.30;;;3.25;;
56927;SDS011;60850;52.502;13.426;2023-07-24T11:37:35;4.60;;;2.85;;
56927;SDS011;60850;52.502;13.426;2023-07-24T11:40:03;5.13;;;3.40;;
56927;SDS011;60850;52.502;13.426;2023-07-24T11:42:39;6.10;;;3.63;;
56927;SDS011;60850;52.502;13.426;2023-07-24T11:45:08;6.68;;;3.75;;
56927;SDS011;60850;52.502;13.426;2023-07-24T11:47:43;5.63;;;3.30;;
56927;SDS011;60850;52.502;13.426;2023-07-24T11:50:11;4.65;;;3.35;;
56927;SDS011;60850;52.502;13.426;2023-07-24T11:52:39;6.00;;;3.58;;
56927;SDS011;60850;52.502;13.426;2023-07-24T11:55:08;5.85;;;3.88;;
56927;SDS011;60850;52.502;13.426;2023-07-24T11:57:36;9.50;;;3.85;;
56927;SDS011;60850;52.502;13.426;2023-07-24T12:00:05;6.28;;;3.83;;
56927;SDS011;60850;52.502;13.426;2023-07-24T12:02:35;7.35;;;4.10;;
56927;SDS011;60850;52.502;13.426;2023-07-24T12:05:04;5.68;;;3.50;;
56927;SDS011;60850;52.502;13.426;2023-07-24T12:07:32;5.35;;;3.38;;
56927;SDS011;60850;52.502;13.426;2023-07-24T12:10:00;6.70;;;3.40;;
56927;SDS011;60850;52.502;13.426;2023-07-24T12:12:38;5.93;;;3.50;;
56927;SDS011;60850;52.502;13.426;2023-07-24T12:15:08;6.13;;;3.65;;
56927;SDS011;60850;52.502;13.426;2023-07-24T12:17:37;5.40;;;3.53;;
56927;SDS011;60850;52.502;13.426;2023-07-24T12:20:06;5.47;;;3.90;;
56927;SDS011;60850;52.502;13.426;2023-07-24T12:22:35;5.72;;;3.70;;
56927;SDS011;60850;52.502;13.426;2023-07-24T12:25:01;6.78;;;3.83;;
56927;SDS011;60850;52.502;13.426;2023-07-24T12:27:29;6.38;;;3.25;;
56927;SDS011;60850;52.502;13.426;2023-07-24T12:29:56;8.77;;;3.15;;
56927;SDS011;60850;52.502;13.426;2023-07-24T12:32:24;8.15;;;3.47;;
56927;SDS011;60850;52.502;13.426;2023-07-24T12:34:52;8.95;;;3.53;;
56927;SDS011;60850;52.502;13.426;2023-07-24T12:37:19;7.47;;;3.20;;
56927;SDS011;60850;52.502;13.426;2023-07-24T12:39:47;4.85;;;3.25;;
56927;SDS011;60850;52.502;13.426;2023-07-24T12:42:14;6.82;;;3.67;;
56927;SDS011;60850;52.502;13.426;2023-07-24T12:44:42;5.45;;;3.33;;
56927;SDS011;60850;52.502;13.426;2023-07-24T12:47:10;5.78;;;3.00;;
56927;SDS011;60850;52.502;13.426;2023-07-24T12:49:39;6.15;;;3.20;;
56927;SDS011;60850;52.502;13.426;2023-07-24T12:52:06;6.60;;;3.63;;
56927;SDS011;60850;52.502;13.426;2023-07-24T12:54:33;6.30;;;3.20;;
56927;SDS011;60850;52.502;13.426;2023-07-24T12:57:01;6.72;;;2.50;;
56927;SDS011;60850;52.502;13.426;2023-07-24T12:59:28;7.65;;;3.53;;
56927;SDS011;60850;52.502;13.426;2023-07-24T13:01:55;7.07;;;3.15;;
56927;SDS011;60850;52.502;13.426;2023-07-24T13:04:22;5.07;;;2.75;;
56927;SDS011;60850;52.502;13.426;2023-07-24T13:06:50;3.53;;;2.70;;
56927;SDS011;60850;52.502;13.426;2023-07-24T13:09:17;8.13;;;2.90;;
56927;SDS011;60850;52.502;13.426;2023-07-24T13:11:45;5.68;;;2.92;;
56927;SDS011;60850;52.502;13.426;2023-07-24T13:14:13;4.32;;;2.50;;
56927;SDS011;60850;52.502;13.426;2023-07-24T13:16:41;6.65;;;2.80;;
56927;SDS011;60850;52.502;13.426;2023-07-24T13:19:07;7.68;;;2.97;;
56927;SDS011;60850;52.502;13.426;2023-07-24T13:21:35;6.15;;;2.75;;
56927;SDS011;60850;52.502;13.426;2023-07-24T13:24:03;7.78;;;3.50;;
56927;SDS011;60850;52.502;13.426;2023-07-24T13:26:31;6.53;;;3.00;;
56927;SDS011;60850;52.502;13.426;2023-07-24T13:28:58;7.03;;;4.55;;
56927;SDS011;60850;52.502;13.426;2023-07-24T13:31:25;6.88;;;4.55;;
56927;SDS011;60850;52.502;13.426;2023-07-24T13:33:53;6.82;;;3.03;;
56927;SDS011;60850;52.502;13.426;2023-07-24T13:36:20;4.57;;;2.83;;
56927;SDS011;60850;52.502;13.426;2023-07-24T13:38:48;4.57;;;2.45;;
56927;SDS011;60850;52.502;13.426;2023-07-24T13:41:17;5.82;;;2.70;;
56927;SDS011;60850;52.502;13.426;2023-07-24T13:43:44;6.53;;;4.10;;
56927;SDS011;60850;52.502;13.426;2023-07-24T13:46:11;5.43;;;2.72;;
56927;SDS011;60850;52.502;13.426;2023-07-24T13:48:38;4.80;;;2.40;;
56927;SDS011;60850;52.502;13.426;2023-07-24T13:51:05;5.60;;;2.80;;
56927;SDS011;60850;52.502;13.426;2023-07-24T13:53:32;5.10;;;3.38;;
56927;SDS011;60850;52.502;13.426;2023-07-24T13:55:59;6.97;;;3.88;;
56927;SDS011;60850;52.502;13.426;2023-07-24T13:58:27;4.90;;;3.08;;
56927;SDS011;60850;52.502;13.426;2023-07-24T14:00:54;5.90;;;2.90;;
56927;SDS011;60850;52.502;13.426;2023-07-24T14:03:21;5.88;;;2.97;;
56927;SDS011;60850;52.502;13.426;2023-07-24T14:05:49;5.55;;;2.83;;
56927;SDS011;60850;52.502;13.426;2023-07-24T14:08:16;8.32;;;3.55;;
56927;SDS011;60850;52.502;13.426;2023-07-24T14:10:43;9.55;;;3.47;;
56927;SDS011;60850;52.502;13.426;2023-07-24T14:13:10;5.45;;;3.13;;
56927;SDS011;60850;52.502;13.426;2023-07-24T14:15:38;6.60;;;3.75;;
56927;SDS011;60850;52.502;13.426;2023-07-24T14:18:05;6.07;;;3.38;;
56927;SDS011;60850;52.502;13.426;2023-07-24T14:20:32;12.75;;;6.00;;
56927;SDS011;60850;52.502;13.426;2023-07-24T14:22:59;8.70;;;5.28;;
56927;SDS011;60850;52.502;13.426;2023-07-24T14:25:25;6.47;;;3.47;;
56927;SDS011;60850;52.502;13.426;2023-07-24T14:27:52;4.78;;;2.90;;
56927;SDS011;60850;52.502;13.426;2023-07-24T14:30:19;11.50;;;3.50;;
56927;SDS011;60850;52.502;13.426;2023-07-24T14:32:48;5.05;;;3.28;;
56927;SDS011;60850;52.502;13.426;2023-07-24T14:35:15;6.82;;;3.38;;